sensor_id;sensor_type;location;lat;lon;timestamp;temperature;humidity
2260;DHT22;333;48.800;9.530;2023-05-29T00:01:23;12.90;99.60
2260;DHT22;333;48.800;9.530;2023-05-29T00:03:51;12.80;99.60
2260;DHT22;333;48.800;9.530;2023-05-29T00:06:19;12.70;99.60
2260;DHT22;333;48.800;9.530;2023-05-29T00:08:46;12.60;99.60
2260;DHT22;333;48.800;9.530;2023-05-29T00:11:13;12.50;99.60
2260;DHT22;333;48.800;9.530;2023-05-29T00:13:40;12.50;99.60
2260;DHT22;333;48.800;9.530;2023-05-29T00:16:07;12.50;99.60
2260;DHT22;333;48.800;9.530;2023-05-29T00:18:35;12.50;99.60
2260;DHT22;333;48.800;9.530;2023-05-29T00:21:04;12.40;99.60
2260;DHT22;333;48.800;9.530;2023-05-29T00:23:32;12.40;99.60
2260;DHT22;333;48.800;9.530;2023-05-29T00:25:59;12.40;99.60
2260;DHT22;333;48.800;9.530;2023-05-29T00:28:26;12.40;99.60
2260;DHT22;333;48.800;9.530;2023-05-29T00:30:53;12.30;99.60
2260;DHT22;333;48.800;9.530;2023-05-29T00:33:20;12.30;99.60
2260;DHT22;333;48.800;9.530;2023-05-29T00:35:47;12.30;99.60
2260;DHT22;333;48.800;9.530;2023-05-29T00:38:16;12.30;99.60
2260;DHT22;333;48.800;9.530;2023-05-29T00:40:43;12.30;99.60
2260;DHT22;333;48.800;9.530;2023-05-29T00:43:10;12.40;99.60
2260;DHT22;333;48.800;9.530;2023-05-29T00:45:36;12.20;99.60
2260;DHT22;333;48.800;9.530;2023-05-29T00:48:04;12.30;99.60
2260;DHT22;333;48.800;9.530;2023-05-29T00:50:31;12.20;99.60
2260;DHT22;333;48.800;9.530;2023-05-29T00:52:59;12.20;99.60
2260;DHT22;333;48.800;9.530;2023-05-29T00:55:29;12.30;99.60
2260;DHT22;333;48.800;9.530;2023-05-29T00:57:56;12.20;99.60
2260;DHT22;333;48.800;9.530;2023-05-29T01:00:23;12.20;99.60
2260;DHT22;333;48.800;9.530;2023-05-29T01:02:51;12.10;99.60
2260;DHT22;333;48.800;9.530;2023-05-29T01:05:19;12.10;99.60
2260;DHT22;333;48.800;9.530;2023-05-29T01:07:46;12.00;99.60
2260;DHT22;333;48.800;9.530;2023-05-29T01:10:14;12.00;99.60
2260;DHT22;333;48.800;9.530;2023-05-29T01:12:54;11.90;99.60
2260;DHT22;333;48.800;9.530;2023-05-29T01:15:32;11.80;99.60
2260;DHT22;333;48.800;9.530;2023-05-29T01:18:12;11.80;99.60
2260;DHT22;333;48.800;9.530;2023-05-29T01:20:50;11.70;99.60
2260;DHT22;333;48.800;9.530;2023-05-29T01:23:40;11.60;99.60
2260;DHT22;333;48.800;9.530;2023-05-29T01:26:33;11.60;99.60
2260;DHT22;333;48.800;9.530;2023-05-29T01:29:04;11.70;99.60
2260;DHT22;333;48.800;9.530;2023-05-29T01:31:34;11.80;99.60
2260;DHT22;333;48.800;9.530;2023-05-29T01:34:02;11.70;99.60
2260;DHT22;333;48.800;9.530;2023-05-29T01:36:29;11.60;99.60
2260;DHT22;333;48.800;9.530;2023-05-29T01:38:58;11.50;99.60
2260;DHT22;333;48.800;9.530;2023-05-29T01:41:26;11.40;99.60
2260;DHT22;333;48.800;9.530;2023-05-29T01:43:56;11.40;99.60
2260;DHT22;333;48.800;9.530;2023-05-29T01:46:25;11.50;99.60
2260;DHT22;333;48.800;9.530;2023-05-29T01:48:53;11.60;99.60
2260;DHT22;333;48.800;9.530;2023-05-29T01:51:20;11.50;99.60
2260;DHT22;333;48.800;9.530;2023-05-29T01:53:47;11.50;99.60
2260;DHT22;333;48.800;9.530;2023-05-29T01:56:15;11.40;99.60
2260;DHT22;333;48.800;9.530;2023-05-29T01:58:42;11.60;99.60
2260;DHT22;333;48.800;9.530;2023-05-29T02:01:11;11.60;99.60
2260;DHT22;333;48.800;9.530;2023-05-29T02:03:38;11.50;99.60
2260;DHT22;333;48.800;9.530;2023-05-29T02:06:05;11.60;99.60
2260;DHT22;333;48.800;9.530;2023-05-29T02:08:33;11.50;99.60
2260;DHT22;333;48.800;9.530;2023-05-29T02:11:00;11.40;99.60
2260;DHT22;333;48.800;9.530;2023-05-29T02:13:27;11.20;99.60
2260;DHT22;333;48.800;9.530;2023-05-29T02:15:54;11.30;99.60
2260;DHT22;333;48.800;9.530;2023-05-29T02:18:23;11.20;99.60
2260;DHT22;333;48.800;9.530;2023-05-29T02:20:51;11.10;99.60
2260;DHT22;333;48.800;9.530;2023-05-29T02:23:18;11.00;99.60
2260;DHT22;333;48.800;9.530;2023-05-29T02:25:46;11.00;99.60
2260;DHT22;333;48.800;9.530;2023-05-29T02:28:13;11.00;99.60
2260;DHT22;333;48.800;9.530;2023-05-29T02:30:40;11.00;99.60
2260;DHT22;333;48.800;9.530;2023-05-29T02:33:07;11.10;99.60
2260;DHT22;333;48.800;9.530;2023-05-29T02:35:36;11.10;99.60
2260;DHT22;333;48.800;9.530;2023-05-29T02:38:03;11.10;99.60
2260;DHT22;333;48.800;9.530;2023-05-29T02:40:30;11.10;99.60
2260;DHT22;333;48.800;9.530;2023-05-29T02:42:57;10.90;99.60
2260;DHT22;333;48.800;9.530;2023-05-29T02:45:24;10.80;99.60
2260;DHT22;333;48.800;9.530;2023-05-29T02:47:51;10.80;99.60
2260;DHT22;333;48.800;9.530;2023-05-29T02:50:18;10.80;99.60
2260;DHT22;333;48.800;9.530;2023-05-29T02:52:46;10.60;99.60
2260;DHT22;333;48.800;9.530;2023-05-29T02:55:13;10.60;99.60
2260;DHT22;333;48.800;9.530;2023-05-29T02:57:41;10.60;99.60
2260;DHT22;333;48.800;9.530;2023-05-29T03:00:09;10.60;99.60
2260;DHT22;333;48.800;9.530;2023-05-29T03:02:39;10.60;99.60
2260;DHT22;333;48.800;9.530;2023-05-29T03:05:07;10.50;99.60
2260;DHT22;333;48.800;9.530;2023-05-29T03:07:35;10.50;99.60
2260;DHT22;333;48.800;9.530;2023-05-29T03:10:04;10.50;99.60
2260;DHT22;333;48.800;9.530;2023-05-29T03:12:31;10.30;99.60
2260;DHT22;333;48.800;9.530;2023-05-29T03:14:58;10.20;99.60
2260;DHT22;333;48.800;9.530;2023-05-29T03:17:25;10.30;99.60
2260;DHT22;333;48.800;9.530;2023-05-29T03:19:52;10.30;99.60
2260;DHT22;333;48.800;9.530;2023-05-29T03:22:19;10.30;99.60
2260;DHT22;333;48.800;9.530;2023-05-29T03:24:46;10.30;99.60
2260;DHT22;333;48.800;9.530;2023-05-29T03:27:14;10.30;99.60
2260;DHT22;333;48.800;9.530;2023-05-29T03:29:41;10.20;99.60
2260;DHT22;333;48.800;9.530;2023-05-29T03:32:08;10.20;99.60
2260;DHT22;333;48.800;9.530;2023-05-29T03:34:35;10.30;99.60
2260;DHT22;333;48.800;9.530;2023-05-29T03:37:03;10.20;99.60
2260;DHT22;333;48.800;9.530;2023-05-29T03:39:30;10.20;99.60
2260;DHT22;333;48.800;9.530;2023-05-29T03:41:56;10.20;99.60
2260;DHT22;333;48.800;9.530;2023-05-29T03:44:25;10.30;99.60
2260;DHT22;333;48.800;9.530;2023-05-29T03:46:52;10.20;99.60
2260;DHT22;333;48.800;9.530;2023-05-29T03:49:19;10.20;99.60
2260;DHT22;333;48.800;9.530;2023-05-29T03:51:46;10.20;99.60
2260;DHT22;333;48.800;9.530;2023-05-29T03:54:13;10.30;99.60
2260;DHT22;333;48.800;9.530;2023-05-29T03:56:40;10.30;99.60
2260;DHT22;333;48.800;9.530;2023-05-29T03:59:07;10.40;99.60
2260;DHT22;333;48.800;9.530;2023-05-29T04:01:35;10.40;99.60
2260;DHT22;333;48.800;9.530;2023-05-29T04:04:02;10.50;99.60
2260;DHT22;333;48.800;9.530;2023-05-29T04:06:30;10.60;99.60
2260;DHT22;333;48.800;9.530;2023-05-29T04:08:57;10.70;99.60
2260;DHT22;333;48.800;9.530;2023-05-29T04:11:24;10.70;99.60
2260;DHT22;333;48.800;9.530;2023-05-29T04:13:51;10.70;99.60
2260;DHT22;333;48.800;9.530;2023-05-29T04:16:18;10.70;99.60
2260;DHT22;333;48.800;9.530;2023-05-29T04:18:46;10.80;99.60
2260;DHT22;333;48.800;9.530;2023-05-29T04:21:14;10.80;99.60
2260;DHT22;333;48.800;9.530;2023-05-29T04:23:41;10.90;99.60
2260;DHT22;333;48.800;9.530;2023-05-29T04:26:08;10.90;99.60
2260;DHT22;333;48.800;9.530;2023-05-29T04:28:36;11.00;99.60
2260;DHT22;333;48.800;9.530;2023-05-29T04:31:04;11.00;99.60
2260;DHT22;333;48.800;9.530;2023-05-29T04:33:31;11.10;99.60
2260;DHT22;333;48.800;9.530;2023-05-29T04:36:00;11.10;99.60
2260;DHT22;333;48.800;9.530;2023-05-29T04:38:29;11.20;99.60
2260;DHT22;333;48.800;9.530;2023-05-29T04:40:57;11.40;99.60
2260;DHT22;333;48.800;9.530;2023-05-29T04:43:24;11.60;99.60
2260;DHT22;333;48.800;9.530;2023-05-29T04:45:52;11.60;99.60
2260;DHT22;333;48.800;9.530;2023-05-29T04:48:19;11.60;99.60
2260;DHT22;333;48.800;9.530;2023-05-29T04:50:46;11.60;99.60
2260;DHT22;333;48.800;9.530;2023-05-29T04:53:15;11.80;99.60
2260;DHT22;333;48.800;9.530;2023-05-29T04:55:42;11.80;99.60
2260;DHT22;333;48.800;9.530;2023-05-29T04:58:09;11.80;99.60
2260;DHT22;333;48.800;9.530;2023-05-29T05:00:37;11.80;99.60
2260;DHT22;333;48.800;9.530;2023-05-29T05:03:04;12.00;99.60
2260;DHT22;333;48.800;9.530;2023-05-29T05:05:32;12.00;99.60
2260;DHT22;333;48.800;9.530;2023-05-29T05:07:59;12.00;99.60
2260;DHT22;333;48.800;9.530;2023-05-29T05:10:27;12.00;99.60
2260;DHT22;333;48.800;9.530;2023-05-29T05:12:54;12.10;99.60
2260;DHT22;333;48.800;9.530;2023-05-29T05:15:21;12.20;99.60
2260;DHT22;333;48.800;9.530;2023-05-29T05:17:48;12.30;99.60
2260;DHT22;333;48.800;9.530;2023-05-29T05:20:15;12.50;99.60
2260;DHT22;333;48.800;9.530;2023-05-29T05:22:42;12.70;99.60
2260;DHT22;333;48.800;9.530;2023-05-29T05:25:09;12.80;99.60
2260;DHT22;333;48.800;9.530;2023-05-29T05:27:38;13.10;99.60
2260;DHT22;333;48.800;9.530;2023-05-29T05:30:06;13.20;99.60
2260;DHT22;333;48.800;9.530;2023-05-29T05:32:34;13.20;99.60
2260;DHT22;333;48.800;9.530;2023-05-29T05:35:01;13.30;99.60
2260;DHT22;333;48.800;9.530;2023-05-29T05:37:29;13.30;99.60
2260;DHT22;333;48.800;9.530;2023-05-29T05:39:56;13.40;99.60
2260;DHT22;333;48.800;9.530;2023-05-29T05:42:24;13.60;99.60
2260;DHT22;333;48.800;9.530;2023-05-29T05:44:52;13.80;99.60
2260;DHT22;333;48.800;9.530;2023-05-29T05:47:19;13.90;99.60
2260;DHT22;333;48.800;9.530;2023-05-29T05:49:46;13.90;99.60
2260;DHT22;333;48.800;9.530;2023-05-29T05:52:15;13.90;99.60
2260;DHT22;333;48.800;9.530;2023-05-29T05:54:42;14.00;99.60
2260;DHT22;333;48.800;9.530;2023-05-29T05:57:09;14.00;99.60
2260;DHT22;333;48.800;9.530;2023-05-29T05:59:36;14.20;99.60
2260;DHT22;333;48.800;9.530;2023-05-29T06:02:06;14.40;99.60
2260;DHT22;333;48.800;9.530;2023-05-29T06:04:33;14.50;99.60
2260;DHT22;333;48.800;9.530;2023-05-29T06:07:00;14.70;99.60
2260;DHT22;333;48.800;9.530;2023-05-29T06:09:27;15.00;99.60
2260;DHT22;333;48.800;9.530;2023-05-29T06:11:54;15.10;99.60
2260;DHT22;333;48.800;9.530;2023-05-29T06:14:21;15.20;99.60
2260;DHT22;333;48.800;9.530;2023-05-29T06:16:48;15.30;99.60
2260;DHT22;333;48.800;9.530;2023-05-29T06:19:17;15.30;99.60
2260;DHT22;333;48.800;9.530;2023-05-29T06:21:44;15.40;99.60
2260;DHT22;333;48.800;9.530;2023-05-29T06:24:12;15.50;99.60
2260;DHT22;333;48.800;9.530;2023-05-29T06:26:39;15.80;99.60
2260;DHT22;333;48.800;9.530;2023-05-29T06:29:06;15.90;99.60
2260;DHT22;333;48.800;9.530;2023-05-29T06:31:33;16.00;99.60
2260;DHT22;333;48.800;9.530;2023-05-29T06:34:00;16.10;99.60
2260;DHT22;333;48.800;9.530;2023-05-29T06:36:29;16.20;99.60
2260;DHT22;333;48.800;9.530;2023-05-29T06:38:58;16.40;99.60
2260;DHT22;333;48.800;9.530;2023-05-29T06:41:25;16.40;99.60
2260;DHT22;333;48.800;9.530;2023-05-29T06:43:52;16.50;99.60
2260;DHT22;333;48.800;9.530;2023-05-29T06:46:19;16.60;99.60
2260;DHT22;333;48.800;9.530;2023-05-29T06:48:46;16.90;99.60
2260;DHT22;333;48.800;9.530;2023-05-29T06:51:14;17.00;99.60
2260;DHT22;333;48.800;9.530;2023-05-29T06:53:42;17.00;99.60
2260;DHT22;333;48.800;9.530;2023-05-29T06:56:09;17.30;99.60
2260;DHT22;333;48.800;9.530;2023-05-29T06:58:37;17.40;99.60
2260;DHT22;333;48.800;9.530;2023-05-29T07:01:04;17.50;99.60
2260;DHT22;333;48.800;9.530;2023-05-29T07:03:31;17.60;99.60
2260;DHT22;333;48.800;9.530;2023-05-29T07:05:58;17.60;99.60
2260;DHT22;333;48.800;9.530;2023-05-29T07:08:27;17.90;99.60
2260;DHT22;333;48.800;9.530;2023-05-29T07:10:55;18.10;99.60
2260;DHT22;333;48.800;9.530;2023-05-29T07:13:25;18.20;99.60
2260;DHT22;333;48.800;9.530;2023-05-29T07:15:52;18.20;99.60
2260;DHT22;333;48.800;9.530;2023-05-29T07:18:19;18.50;99.60
2260;DHT22;333;48.800;9.530;2023-05-29T07:20:46;18.70;99.00
2260;DHT22;333;48.800;9.530;2023-05-29T07:23:13;18.80;98.90
2260;DHT22;333;48.800;9.530;2023-05-29T07:25:40;19.00;99.60
2260;DHT22;333;48.800;9.530;2023-05-29T07:28:08;19.30;97.70
2260;DHT22;333;48.800;9.530;2023-05-29T07:30:35;19.50;96.90
2260;DHT22;333;48.800;9.530;2023-05-29T07:33:03;19.50;96.70
2260;DHT22;333;48.800;9.530;2023-05-29T07:35:29;19.60;96.90
2260;DHT22;333;48.800;9.530;2023-05-29T07:37:58;19.60;95.70
2260;DHT22;333;48.800;9.530;2023-05-29T07:40:25;19.50;96.40
2260;DHT22;333;48.800;9.530;2023-05-29T07:42:52;19.60;96.20
2260;DHT22;333;48.800;9.530;2023-05-29T07:45:21;19.60;95.20
2260;DHT22;333;48.800;9.530;2023-05-29T07:47:48;19.60;97.00
2260;DHT22;333;48.800;9.530;2023-05-29T07:50:15;19.80;95.20
2260;DHT22;333;48.800;9.530;2023-05-29T07:52:42;20.00;95.30
2260;DHT22;333;48.800;9.530;2023-05-29T07:55:09;20.20;93.60
2260;DHT22;333;48.800;9.530;2023-05-29T07:57:36;20.10;93.80
2260;DHT22;333;48.800;9.530;2023-05-29T08:00:06;20.10;94.00
2260;DHT22;333;48.800;9.530;2023-05-29T08:02:34;20.30;93.90
2260;DHT22;333;48.800;9.530;2023-05-29T08:05:02;20.50;93.30
2260;DHT22;333;48.800;9.530;2023-05-29T08:07:29;20.50;92.00
2260;DHT22;333;48.800;9.530;2023-05-29T08:09:57;20.60;92.20
2260;DHT22;333;48.800;9.530;2023-05-29T08:12:24;20.80;91.90
2260;DHT22;333;48.800;9.530;2023-05-29T08:14:51;21.00;91.40
2260;DHT22;333;48.800;9.530;2023-05-29T08:17:18;21.20;91.60
2260;DHT22;333;48.800;9.530;2023-05-29T08:19:47;21.40;89.70
2260;DHT22;333;48.800;9.530;2023-05-29T08:22:14;21.60;89.30
2260;DHT22;333;48.800;9.530;2023-05-29T08:24:41;21.70;90.00
2260;DHT22;333;48.800;9.530;2023-05-29T08:27:08;21.80;89.20
2260;DHT22;333;48.800;9.530;2023-05-29T08:29:35;22.10;88.80
2260;DHT22;333;48.800;9.530;2023-05-29T08:32:04;22.20;87.00
2260;DHT22;333;48.800;9.530;2023-05-29T08:34:31;22.40;89.50
2260;DHT22;333;48.800;9.530;2023-05-29T08:37:02;22.30;89.70
2260;DHT22;333;48.800;9.530;2023-05-29T08:39:31;22.20;89.20
2260;DHT22;333;48.800;9.530;2023-05-29T08:42:01;22.20;88.80
2260;DHT22;333;48.800;9.530;2023-05-29T08:44:33;22.30;88.90
2260;DHT22;333;48.800;9.530;2023-05-29T08:47:01;22.40;88.90
2260;DHT22;333;48.800;9.530;2023-05-29T08:49:34;22.60;85.70
2260;DHT22;333;48.800;9.530;2023-05-29T08:52:09;22.90;85.80
2260;DHT22;333;48.800;9.530;2023-05-29T08:54:37;23.20;82.70
2260;DHT22;333;48.800;9.530;2023-05-29T08:57:05;23.40;82.10
2260;DHT22;333;48.800;9.530;2023-05-29T08:59:33;23.30;81.70
2260;DHT22;333;48.800;9.530;2023-05-29T09:02:00;23.30;82.20
2260;DHT22;333;48.800;9.530;2023-05-29T09:04:28;23.60;81.70
2260;DHT22;333;48.800;9.530;2023-05-29T09:06:57;23.80;80.70
2260;DHT22;333;48.800;9.530;2023-05-29T09:09:27;23.80;77.80
2260;DHT22;333;48.800;9.530;2023-05-29T09:11:54;24.00;77.40
2260;DHT22;333;48.800;9.530;2023-05-29T09:14:35;23.80;76.70
2260;DHT22;333;48.800;9.530;2023-05-29T09:17:03;24.10;77.80
2260;DHT22;333;48.800;9.530;2023-05-29T09:19:31;24.60;76.50
2260;DHT22;333;48.800;9.530;2023-05-29T09:22:02;25.10;74.30
2260;DHT22;333;48.800;9.530;2023-05-29T09:24:32;25.20;73.50
2260;DHT22;333;48.800;9.530;2023-05-29T09:27:00;25.00;74.40
2260;DHT22;333;48.800;9.530;2023-05-29T09:29:28;25.10;73.60
2260;DHT22;333;48.800;9.530;2023-05-29T09:31:57;25.30;75.00
2260;DHT22;333;48.800;9.530;2023-05-29T09:34:25;25.50;73.20
2260;DHT22;333;48.800;9.530;2023-05-29T09:36:53;25.60;73.40
2260;DHT22;333;48.800;9.530;2023-05-29T09:39:21;25.70;72.10
2260;DHT22;333;48.800;9.530;2023-05-29T09:41:50;25.50;73.30
2260;DHT22;333;48.800;9.530;2023-05-29T09:44:20;25.60;70.80
2260;DHT22;333;48.800;9.530;2023-05-29T09:46:49;25.40;72.00
2260;DHT22;333;48.800;9.530;2023-05-29T09:49:15;25.50;72.20
2260;DHT22;333;48.800;9.530;2023-05-29T09:51:46;25.60;72.30
2260;DHT22;333;48.800;9.530;2023-05-29T09:54:15;26.00;72.70
2260;DHT22;333;48.800;9.530;2023-05-29T09:56:43;26.10;73.50
2260;DHT22;333;48.800;9.530;2023-05-29T09:59:13;25.90;69.90
2260;DHT22;333;48.800;9.530;2023-05-29T10:01:42;25.70;72.00
2260;DHT22;333;48.800;9.530;2023-05-29T10:04:10;25.60;71.30
2260;DHT22;333;48.800;9.530;2023-05-29T10:06:38;25.40;72.50
2260;DHT22;333;48.800;9.530;2023-05-29T10:09:09;25.00;72.50
2260;DHT22;333;48.800;9.530;2023-05-29T10:11:38;24.60;72.80
2260;DHT22;333;48.800;9.530;2023-05-29T10:14:10;24.40;72.80
2260;DHT22;333;48.800;9.530;2023-05-29T10:16:42;24.60;73.80
2260;DHT22;333;48.800;9.530;2023-05-29T10:19:12;25.30;73.20
2260;DHT22;333;48.800;9.530;2023-05-29T10:21:40;25.60;70.30
2260;DHT22;333;48.800;9.530;2023-05-29T10:24:08;25.70;69.70
2260;DHT22;333;48.800;9.530;2023-05-29T10:26:39;25.80;68.90
2260;DHT22;333;48.800;9.530;2023-05-29T10:29:12;25.70;69.60
2260;DHT22;333;48.800;9.530;2023-05-29T10:32:01;24.90;69.50
2260;DHT22;333;48.800;9.530;2023-05-29T10:34:37;25.20;69.40
2260;DHT22;333;48.800;9.530;2023-05-29T10:37:17;25.50;69.00
2260;DHT22;333;48.800;9.530;2023-05-29T10:39:45;25.60;70.70
2260;DHT22;333;48.800;9.530;2023-05-29T10:42:40;25.30;71.00
2260;DHT22;333;48.800;9.530;2023-05-29T10:45:07;25.30;70.10
2260;DHT22;333;48.800;9.530;2023-05-29T10:47:36;25.60;68.30
2260;DHT22;333;48.800;9.530;2023-05-29T10:50:04;25.80;68.60
2260;DHT22;333;48.800;9.530;2023-05-29T10:52:31;26.10;68.40
2260;DHT22;333;48.800;9.530;2023-05-29T10:54:58;26.50;67.80
2260;DHT22;333;48.800;9.530;2023-05-29T10:57:29;26.50;69.20
2260;DHT22;333;48.800;9.530;2023-05-29T11:00:06;26.20;67.00
2260;DHT22;333;48.800;9.530;2023-05-29T11:02:40;26.50;66.50
2260;DHT22;333;48.800;9.530;2023-05-29T11:05:23;26.80;63.90
2260;DHT22;333;48.800;9.530;2023-05-29T11:07:52;26.60;63.00
2260;DHT22;333;48.800;9.530;2023-05-29T11:10:44;26.40;66.90
2260;DHT22;333;48.800;9.530;2023-05-29T11:13:23;26.30;65.10
2260;DHT22;333;48.800;9.530;2023-05-29T11:16:11;26.70;65.10
2260;DHT22;333;48.800;9.530;2023-05-29T11:18:44;26.10;63.50
2260;DHT22;333;48.800;9.530;2023-05-29T11:21:44;25.40;66.40
2260;DHT22;333;48.800;9.530;2023-05-29T11:24:18;25.60;66.70
2260;DHT22;333;48.800;9.530;2023-05-29T11:26:48;25.80;65.70
2260;DHT22;333;48.800;9.530;2023-05-29T11:29:15;26.00;66.10
2260;DHT22;333;48.800;9.530;2023-05-29T11:31:43;26.10;65.00
2260;DHT22;333;48.800;9.530;2023-05-29T11:34:14;26.90;65.00
2260;DHT22;333;48.800;9.530;2023-05-29T11:36:41;27.60;63.00
2260;DHT22;333;48.800;9.530;2023-05-29T11:39:09;27.10;63.70
2260;DHT22;333;48.800;9.530;2023-05-29T11:41:36;26.20;64.20
2260;DHT22;333;48.800;9.530;2023-05-29T11:44:04;26.70;63.70
2260;DHT22;333;48.800;9.530;2023-05-29T11:46:32;27.20;63.80
2260;DHT22;333;48.800;9.530;2023-05-29T11:49:00;27.30;61.90
2260;DHT22;333;48.800;9.530;2023-05-29T11:51:29;27.20;65.30
2260;DHT22;333;48.800;9.530;2023-05-29T11:53:56;27.10;62.20
2260;DHT22;333;48.800;9.530;2023-05-29T11:56:24;26.90;64.20
2260;DHT22;333;48.800;9.530;2023-05-29T11:58:52;26.50;62.60
2260;DHT22;333;48.800;9.530;2023-05-29T12:01:22;26.30;63.30
2260;DHT22;333;48.800;9.530;2023-05-29T12:03:51;26.40;64.50
2260;DHT22;333;48.800;9.530;2023-05-29T12:06:32;27.10;63.10
2260;DHT22;333;48.800;9.530;2023-05-29T12:08:59;27.70;64.70
2260;DHT22;333;48.800;9.530;2023-05-29T12:11:26;27.90;61.80
2260;DHT22;333;48.800;9.530;2023-05-29T12:13:57;27.90;61.40
2260;DHT22;333;48.800;9.530;2023-05-29T12:16:26;27.60;59.90
2260;DHT22;333;48.800;9.530;2023-05-29T12:18:53;27.00;61.90
2260;DHT22;333;48.800;9.530;2023-05-29T12:21:21;26.30;62.70
2260;DHT22;333;48.800;9.530;2023-05-29T12:23:53;26.20;62.90
2260;DHT22;333;48.800;9.530;2023-05-29T12:26:22;26.60;63.80
2260;DHT22;333;48.800;9.530;2023-05-29T12:28:50;27.30;61.70
2260;DHT22;333;48.800;9.530;2023-05-29T12:31:26;28.00;59.60
2260;DHT22;333;48.800;9.530;2023-05-29T12:33:59;28.10;60.80
2260;DHT22;333;48.800;9.530;2023-05-29T12:36:26;28.40;61.40
2260;DHT22;333;48.800;9.530;2023-05-29T12:38:54;28.80;57.60
2260;DHT22;333;48.800;9.530;2023-05-29T12:41:27;27.70;59.10
2260;DHT22;333;48.800;9.530;2023-05-29T12:43:54;26.50;59.30
2260;DHT22;333;48.800;9.530;2023-05-29T12:46:22;27.00;59.70
2260;DHT22;333;48.800;9.530;2023-05-29T12:48:51;27.00;58.70
2260;DHT22;333;48.800;9.530;2023-05-29T12:51:22;27.20;60.40
2260;DHT22;333;48.800;9.530;2023-05-29T12:53:50;27.00;59.70
2260;DHT22;333;48.800;9.530;2023-05-29T12:56:23;27.30;59.30
2260;DHT22;333;48.800;9.530;2023-05-29T12:58:52;27.70;59.10
2260;DHT22;333;48.800;9.530;2023-05-29T13:01:19;28.00;58.50
2260;DHT22;333;48.800;9.530;2023-05-29T13:03:46;27.00;57.70
2260;DHT22;333;48.800;9.530;2023-05-29T13:06:13;26.40;60.70
2260;DHT22;333;48.800;9.530;2023-05-29T13:08:40;27.00;60.70
2260;DHT22;333;48.800;9.530;2023-05-29T13:11:07;27.30;59.70
2260;DHT22;333;48.800;9.530;2023-05-29T13:13:36;27.60;60.20
2260;DHT22;333;48.800;9.530;2023-05-29T13:16:03;28.50;56.00
2260;DHT22;333;48.800;9.530;2023-05-29T13:18:30;28.30;55.80
2260;DHT22;333;48.800;9.530;2023-05-29T13:20:59;27.80;56.40
2260;DHT22;333;48.800;9.530;2023-05-29T13:23:26;27.10;58.30
2260;DHT22;333;48.800;9.530;2023-05-29T13:25:53;28.10;57.10
2260;DHT22;333;48.800;9.530;2023-05-29T13:28:20;28.00;56.30
2260;DHT22;333;48.800;9.530;2023-05-29T13:30:51;27.20;57.20
2260;DHT22;333;48.800;9.530;2023-05-29T13:33:18;27.20;57.60
2260;DHT22;333;48.800;9.530;2023-05-29T13:35:44;27.80;58.70
2260;DHT22;333;48.800;9.530;2023-05-29T13:38:11;28.40;57.80
2260;DHT22;333;48.800;9.530;2023-05-29T13:40:38;29.10;57.20
2260;DHT22;333;48.800;9.530;2023-05-29T13:43:06;28.70;55.40
2260;DHT22;333;48.800;9.530;2023-05-29T13:45:33;28.50;57.00
2260;DHT22;333;48.800;9.530;2023-05-29T13:48:02;29.10;56.40
2260;DHT22;333;48.800;9.530;2023-05-29T13:50:29;29.30;55.50
2260;DHT22;333;48.800;9.530;2023-05-29T13:52:56;30.20;56.70
2260;DHT22;333;48.800;9.530;2023-05-29T13:55:23;30.70;53.80
2260;DHT22;333;48.800;9.530;2023-05-29T13:57:50;30.50;53.60
2260;DHT22;333;48.800;9.530;2023-05-29T14:00:18;29.90;53.60
2260;DHT22;333;48.800;9.530;2023-05-29T14:02:45;29.90;53.90
2260;DHT22;333;48.800;9.530;2023-05-29T14:05:13;28.50;52.90
2260;DHT22;333;48.800;9.530;2023-05-29T14:07:40;28.50;53.90
2260;DHT22;333;48.800;9.530;2023-05-29T14:10:08;29.50;52.60
2260;DHT22;333;48.800;9.530;2023-05-29T14:12:35;29.80;54.40
2260;DHT22;333;48.800;9.530;2023-05-29T14:15:03;30.10;53.00
2260;DHT22;333;48.800;9.530;2023-05-29T14:17:30;29.40;55.00
2260;DHT22;333;48.800;9.530;2023-05-29T14:19:58;29.80;54.20
2260;DHT22;333;48.800;9.530;2023-05-29T14:22:30;30.50;53.90
2260;DHT22;333;48.800;9.530;2023-05-29T14:24:57;29.90;53.20
2260;DHT22;333;48.800;9.530;2023-05-29T14:27:25;29.70;55.10
2260;DHT22;333;48.800;9.530;2023-05-29T14:29:54;30.10;54.60
2260;DHT22;333;48.800;9.530;2023-05-29T14:32:20;30.30;55.10
2260;DHT22;333;48.800;9.530;2023-05-29T14:34:47;29.90;53.10
2260;DHT22;333;48.800;9.530;2023-05-29T14:37:15;28.90;55.60
2260;DHT22;333;48.800;9.530;2023-05-29T14:39:44;28.80;55.80
2260;DHT22;333;48.800;9.530;2023-05-29T14:42:11;29.70;56.00
2260;DHT22;333;48.800;9.530;2023-05-29T14:44:39;30.40;53.10
2260;DHT22;333;48.800;9.530;2023-05-29T14:47:06;30.50;53.80
2260;DHT22;333;48.800;9.530;2023-05-29T14:49:33;29.60;55.00
2260;DHT22;333;48.800;9.530;2023-05-29T14:52:00;30.10;53.60
2260;DHT22;333;48.800;9.530;2023-05-29T14:54:28;30.70;53.70
2260;DHT22;333;48.800;9.530;2023-05-29T14:56:57;31.30;51.90
2260;DHT22;333;48.800;9.530;2023-05-29T14:59:24;31.60;53.40
2260;DHT22;333;48.800;9.530;2023-05-29T15:01:51;30.70;52.20
2260;DHT22;333;48.800;9.530;2023-05-29T15:04:19;29.20;55.30
2260;DHT22;333;48.800;9.530;2023-05-29T15:06:46;29.70;55.20
2260;DHT22;333;48.800;9.530;2023-05-29T15:09:13;29.60;55.00
2260;DHT22;333;48.800;9.530;2023-05-29T15:11:40;29.50;55.30
2260;DHT22;333;48.800;9.530;2023-05-29T15:14:08;29.90;56.80
2260;DHT22;333;48.800;9.530;2023-05-29T15:16:35;30.10;53.50
2260;DHT22;333;48.800;9.530;2023-05-29T15:19:02;29.50;54.40
2260;DHT22;333;48.800;9.530;2023-05-29T15:21:29;30.10;53.80
2260;DHT22;333;48.800;9.530;2023-05-29T15:23:56;30.40;53.00
2260;DHT22;333;48.800;9.530;2023-05-29T15:26:25;30.40;52.90
2260;DHT22;333;48.800;9.530;2023-05-29T15:28:52;29.80;53.40
2260;DHT22;333;48.800;9.530;2023-05-29T15:31:21;29.10;54.30
2260;DHT22;333;48.800;9.530;2023-05-29T15:33:48;28.90;56.80
2260;DHT22;333;48.800;9.530;2023-05-29T15:36:15;29.80;54.60
2260;DHT22;333;48.800;9.530;2023-05-29T15:38:44;29.90;56.00
2260;DHT22;333;48.800;9.530;2023-05-29T15:41:11;30.50;53.40
2260;DHT22;333;48.800;9.530;2023-05-29T15:43:38;30.30;52.40
2260;DHT22;333;48.800;9.530;2023-05-29T15:46:06;30.40;53.20
2260;DHT22;333;48.800;9.530;2023-05-29T15:48:37;30.00;54.10
2260;DHT22;333;48.800;9.530;2023-05-29T15:51:05;29.30;56.70
2260;DHT22;333;48.800;9.530;2023-05-29T15:53:32;29.30;55.70
2260;DHT22;333;48.800;9.530;2023-05-29T15:55:59;29.20;55.40
2260;DHT22;333;48.800;9.530;2023-05-29T15:58:26;30.20;54.20
2260;DHT22;333;48.800;9.530;2023-05-29T16:00:53;30.40;53.10
2260;DHT22;333;48.800;9.530;2023-05-29T16:03:21;29.80;54.00
2260;DHT22;333;48.800;9.530;2023-05-29T16:05:49;29.70;55.60
2260;DHT22;333;48.800;9.530;2023-05-29T16:08:16;29.20;55.70
2260;DHT22;333;48.800;9.530;2023-05-29T16:10:44;29.20;55.60
2260;DHT22;333;48.800;9.530;2023-05-29T16:13:12;29.10;56.10
2260;DHT22;333;48.800;9.530;2023-05-29T16:15:39;29.40;55.00
2260;DHT22;333;48.800;9.530;2023-05-29T16:18:07;29.20;55.60
2260;DHT22;333;48.800;9.530;2023-05-29T16:20:34;28.70;56.00
2260;DHT22;333;48.800;9.530;2023-05-29T16:23:02;28.60;57.10
2260;DHT22;333;48.800;9.530;2023-05-29T16:25:29;28.70;56.90